Time;durP1;ratioP1;P1;durP2;ratioP2;P2;SDS_P1;SDS_P2;PMS_P1;PMS_P2;Temp;Humidity;BMP_temperature;BMP_pressure;BME280_temperature;BME280_humidity;BME280_pressure;Samples;Min_cycle;Max_cycle;Signal;HPM_P1;HPM_P2
2023/08/22 00:01:43;;;;;;;5.53;1.63;;;;;;;;;;5031670;28;20029;-76
2023/08/22 00:04:08;;;;;;;4.68;1.65;;;;;;;;;;5017818;28;20036;-76
2023/08/22 00:06:33;;;;;;;5.30;1.60;;;;;;;;;;5034054;28;20033;-76
2023/08/22 00:08:58;;;;;;;4.32;1.58;;;;;;;;;;5033500;28;20030;-76
2023/08/22 00:11:24;;;;;;;3.05;1.50;;;;;;;;;;5033767;28;20037;-75
2023/08/22 00:13:49;;;;;;;4.32;1.50;;;;;;;;;;5033842;28;20033;-76
2023/08/22 00:16:14;;;;;;;4.10;1.55;;;;;;;;;;5033883;28;20026;-76
2023/08/22 00:18:39;;;;;;;2.47;1.20;;;;;;;;;;5033758;28;20051;-75
2023/08/22 00:21:05;;;;;;;4.05;1.45;;;;;;;;;;5033293;28;20031;-77
2023/08/22 00:23:30;;;;;;;4.72;1.55;;;;;;;;;;5033656;28;20079;-76
2023/08/22 00:25:55;;;;;;;5.90;1.88;;;;;;;;;;5032559;28;20044;-76
2023/08/22 00:28:20;;;;;;;4.28;1.60;;;;;;;;;;5033836;28;20040;-76
2023/08/22 00:30:46;;;;;;;4.20;1.80;;;;;;;;;;5033821;28;20033;-75
2023/08/22 00:33:11;;;;;;;4.70;1.55;;;;;;;;;;5032024;28;20065;-76
2023/08/22 00:35:37;;;;;;;3.88;1.50;;;;;;;;;;5033182;28;20037;-76
2023/08/22 00:38:02;;;;;;;3.40;1.67;;;;;;;;;;5033178;28;20033;-76
2023/08/22 00:40:27;;;;;;;4.78;1.75;;;;;;;;;;5032868;28;20272;-76
2023/08/22 00:42:52;;;;;;;4.93;1.40;;;;;;;;;;5033235;28;20083;-76
2023/08/22 00:45:18;;;;;;;4.65;1.10;;;;;;;;;;5032915;28;20034;-76
2023/08/22 00:47:43;;;;;;;3.88;1.48;;;;;;;;;;5031461;28;20029;-76
2023/08/22 00:50:10;;;;;;;3.25;1.38;;;;;;;;;;5032725;28;20037;-76
2023/08/22 00:52:36;;;;;;;2.90;1.25;;;;;;;;;;5006900;28;20029;-76
2023/08/22 00:55:01;;;;;;;4.13;1.38;;;;;;;;;;5015463;28;20029;-76
2023/08/22 00:57:27;;;;;;;2.75;1.20;;;;;;;;;;5031912;28;20485;-76
2023/08/22 00:59:53;;;;;;;6.07;1.52;;;;;;;;;;5014996;28;20022;-76
2023/08/22 01:02:18;;;;;;;7.80;2.10;;;;;;;;;;5032884;28;20037;-76
2023/08/22 01:04:43;;;;;;;4.07;1.50;;;;;;;;;;5032959;28;20065;-76
2023/08/22 01:07:18;;;;;;;3.88;1.60;;;;;;;;;;5031706;28;20180;-76
2023/08/22 01:09:46;;;;;;;4.13;1.92;;;;;;;;;;5031052;28;20112;-77
2023/08/22 01:12:30;;;;;;;3.92;1.70;;;;;;;;;;5032865;28;20068;-76
2023/08/22 01:14:58;;;;;;;4.47;1.60;;;;;;;;;;5026396;28;20038;-76
2023/08/22 01:17:24;;;;;;;4.80;1.77;;;;;;;;;;5032774;28;20056;-76
2023/08/22 01:19:51;;;;;;;2.65;1.42;;;;;;;;;;5032045;28;20026;-76
2023/08/22 01:22:16;;;;;;;4.05;1.60;;;;;;;;;;5031158;28;20623;-77
2023/08/22 01:24:41;;;;;;;4.18;1.30;;;;;;;;;;5014746;28;20030;-76
2023/08/22 01:27:11;;;;;;;4.00;1.80;;;;;;;;;;5031281;28;20028;-75
2023/08/22 01:29:39;;;;;;;2.80;1.40;;;;;;;;;;5034755;28;20124;-76
2023/08/22 01:32:07;;;;;;;3.50;1.30;;;;;;;;;;5031545;28;20037;-76
2023/08/22 01:34:35;;;;;;;6.28;1.83;;;;;;;;;;5045486;23;20627;-77
2023/08/22 01:37:01;;;;;;;4.55;1.60;;;;;;;;;;5024075;28;20040;-77
2023/08/22 01:39:27;;;;;;;3.78;1.50;;;;;;;;;;5002902;28;20030;-77
2023/08/22 01:41:53;;;;;;;3.75;1.52;;;;;;;;;;5024404;28;20041;-77
2023/08/22 01:44:19;;;;;;;3.80;1.50;;;;;;;;;;5019466;28;20033;-77
2023/08/22 01:46:44;;;;;;;3.60;1.50;;;;;;;;;;5025048;28;20029;-77
2023/08/22 01:49:10;;;;;;;3.40;1.35;;;;;;;;;;5021211;28;20036;-77
2023/08/22 01:51:35;;;;;;;5.88;1.60;;;;;;;;;;5021490;28;20409;-77
2023/08/22 01:54:01;;;;;;;3.30;1.30;;;;;;;;;;5022984;28;20040;-77
2023/08/22 01:56:26;;;;;;;4.32;1.63;;;;;;;;;;5023385;28;20076;-77
2023/08/22 01:58:51;;;;;;;4.28;1.50;;;;;;;;;;5020920;28;20468;-77
2023/08/22 02:01:16;;;;;;;4.90;1.73;;;;;;;;;;5030967;28;20025;-77
2023/08/22 02:03:43;;;;;;;4.82;1.70;;;;;;;;;;5022639;28;20026;-77
2023/08/22 02:06:09;;;;;;;5.10;1.73;;;;;;;;;;5012471;28;20025;-77
2023/08/22 02:08:34;;;;;;;3.00;1.10;;;;;;;;;;5021963;28;20030;-77
2023/08/22 02:10:59;;;;;;;5.15;1.30;;;;;;;;;;5020153;28;20029;-77
2023/08/22 02:13:25;;;;;;;3.42;1.40;;;;;;;;;;5020643;28;20155;-77
2023/08/22 02:15:50;;;;;;;5.15;1.50;;;;;;;;;;5025549;28;20025;-77
2023/08/22 02:18:15;;;;;;;4.55;1.63;;;;;;;;;;5022755;28;20408;-77
2023/08/22 02:20:41;;;;;;;4.05;1.60;;;;;;;;;;5021664;28;20045;-77
2023/08/22 02:23:08;;;;;;;3.63;1.25;;;;;;;;;;5022563;28;20029;-78
2023/08/22 02:25:33;;;;;;;3.13;1.33;;;;;;;;;;5027592;28;20511;-78
2023/08/22 02:27:58;;;;;;;4.18;1.40;;;;;;;;;;5027296;28;20037;-78
2023/08/22 02:30:24;;;;;;;3.17;1.58;;;;;;;;;;5025518;28;20044;-78
2023/08/22 02:32:49;;;;;;;3.95;1.58;;;;;;;;;;5024056;28;20026;-77
2023/08/22 02:35:14;;;;;;;3.63;1.58;;;;;;;;;;5011036;28;20068;-77
2023/08/22 02:37:39;;;;;;;3.80;1.67;;;;;;;;;;5021180;28;20064;-77
2023/08/22 02:40:08;;;;;;;3.75;1.70;;;;;;;;;;5022017;28;20076;-77
2023/08/22 02:42:34;;;;;;;5.45;2.35;;;;;;;;;;5022978;28;20022;-77
2023/08/22 02:45:01;;;;;;;5.00;3.03;;;;;;;;;;5018349;28;20029;-77
2023/08/22 02:47:27;;;;;;;4.45;2.17;;;;;;;;;;4991097;28;20579;-77
2023/08/22 02:49:52;;;;;;;4.97;1.80;;;;;;;;;;5018731;28;20026;-77
2023/08/22 02:52:18;;;;;;;4.43;2.50;;;;;;;;;;5023111;28;20022;-77
2023/08/22 02:54:43;;;;;;;4.88;2.50;;;;;;;;;;5018300;28;20400;-77
2023/08/22 02:57:08;;;;;;;6.53;2.88;;;;;;;;;;5023162;28;20086;-77
2023/08/22 02:59:34;;;;;;;5.65;2.88;;;;;;;;;;5024660;28;20108;-77
2023/08/22 03:02:00;;;;;;;5.57;2.10;;;;;;;;;;5021242;28;20017;-77
2023/08/22 03:04:26;;;;;;;5.00;1.98;;;;;;;;;;5018535;28;20607;-77
2023/08/22 03:06:52;;;;;;;4.05;1.40;;;;;;;;;;5021108;28;20128;-77
2023/08/22 03:09:17;;;;;;;4.20;2.08;;;;;;;;;;5018373;28;20147;-77
2023/08/22 03:11:42;;;;;;;6.07;2.03;;;;;;;;;;5012369;28;20077;-78
2023/08/22 03:14:08;;;;;;;4.95;2.28;;;;;;;;;;5011169;28;20396;-78
2023/08/22 03:16:33;;;;;;;4.68;2.60;;;;;;;;;;5024511;28;20034;-78
2023/08/22 03:18:58;;;;;;;5.75;2.78;;;;;;;;;;5021502;28;20514;-77
2023/08/22 03:21:24;;;;;;;6.95;2.40;;;;;;;;;;5021082;28;20025;-78
2023/08/22 03:23:49;;;;;;;6.53;2.65;;;;;;;;;;5010241;28;20033;-78
2023/08/22 03:26:16;;;;;;;5.63;3.63;;;;;;;;;;5021616;28;20493;-77
2023/08/22 03:28:42;;;;;;;7.68;4.20;;;;;;;;;;5021271;28;20034;-78
2023/08/22 03:31:08;;;;;;;7.05;4.00;;;;;;;;;;5012237;28;20036;-78
2023/08/22 03:33:34;;;;;;;7.05;4.75;;;;;;;;;;5019564;28;20022;-78
2023/08/22 03:36:02;;;;;;;7.53;3.95;;;;;;;;;;5019244;28;20559;-78
2023/08/22 03:38:27;;;;;;;7.05;4.68;;;;;;;;;;5025058;28;20116;-77
2023/08/22 03:40:54;;;;;;;5.97;3.33;;;;;;;;;;5022167;28;20567;-78
2023/08/22 03:43:20;;;;;;;6.25;2.90;;;;;;;;;;5024179;28;20025;-78
2023/08/22 03:45:45;;;;;;;6.43;2.38;;;;;;;;;;5024126;28;20593;-78
2023/08/22 03:48:11;;;;;;;6.47;2.67;;;;;;;;;;5024379;28;20512;-78
2023/08/22 03:50:40;;;;;;;3.95;2.00;;;;;;;;;;5026716;28;20041;-78
2023/08/22 03:53:05;;;;;;;3.92;1.65;;;;;;;;;;4999703;28;20040;-78
2023/08/22 03:55:31;;;;;;;6.93;3.10;;;;;;;;;;5021210;28;20128;-78
2023/08/22 03:57:58;;;;;;;5.00;3.20;;;;;;;;;;5022464;28;20037;-78
2023/08/22 04:00:23;;;;;;;6.72;3.20;;;;;;;;;;5014271;28;20034;-78
2023/08/22 04:02:52;;;;;;;5.15;3.17;;;;;;;;;;5023704;28;20032;-78
2023/08/22 04:05:17;;;;;;;9.90;4.50;;;;;;;;;;5024175;28;20512;-78
2023/08/22 04:07:43;;;;;;;6.25;3.70;;;;;;;;;;5030449;28;20067;-78
2023/08/22 04:10:08;;;;;;;6.00;3.45;;;;;;;;;;5016856;28;20064;-78
2023/08/22 04:12:33;;;;;;;6.47;4.07;;;;;;;;;;5024553;28;20061;-78
2023/08/22 04:14:59;;;;;;;7.95;4.50;;;;;;;;;;5022108;28;20025;-77
2023/08/22 04:17:24;;;;;;;5.35;3.63;;;;;;;;;;5025305;28;20025;-77
2023/08/22 04:19:50;;;;;;;5.95;3.00;;;;;;;;;;5013524;28;20029;-78
2023/08/22 04:22:15;;;;;;;5.65;3.38;;;;;;;;;;5015831;28;20030;-78
2023/08/22 04:24:40;;;;;;;7.50;3.92;;;;;;;;;;5022988;28;20056;-78
2023/08/22 04:27:06;;;;;;;5.22;3.38;;;;;;;;;;5023613;28;20392;-78
2023/08/22 04:29:31;;;;;;;5.95;3.17;;;;;;;;;;5027834;28;20099;-78
2023/08/22 04:31:58;;;;;;;6.68;2.80;;;;;;;;;;5015861;28;20400;-78
2023/08/22 04:34:23;;;;;;;7.70;4.47;;;;;;;;;;5022176;28;20029;-78
2023/08/22 04:36:53;;;;;;;7.35;3.28;;;;;;;;;;5023809;28;20052;-78
2023/08/22 04:39:18;;;;;;;5.03;3.15;;;;;;;;;;5012757;28;20504;-77
2023/08/22 04:41:46;;;;;;;5.90;2.35;;;;;;;;;;5014794;28;20436;-78
2023/08/22 04:44:26;;;;;;;4.22;1.63;;;;;;;;;;5018661;28;20040;-78
2023/08/22 04:46:51;;;;;;;4.20;1.58;;;;;;;;;;5025272;28;20025;-78
2023/08/22 04:49:17;;;;;;;5.45;1.98;;;;;;;;;;5024681;28;20034;-78
2023/08/22 04:51:43;;;;;;;5.28;1.85;;;;;;;;;;5025622;28;20415;-78
2023/08/22 04:54:08;;;;;;;6.50;1.90;;;;;;;;;;5007624;28;20092;-78
2023/08/22 04:56:33;;;;;;;6.38;2.40;;;;;;;;;;5024843;28;20036;-78
2023/08/22 04:58:58;;;;;;;5.20;2.63;;;;;;;;;;5013986;28;20033;-78
2023/08/22 05:01:25;;;;;;;5.78;2.60;;;;;;;;;;5014183;28;20026;-78
2023/08/22 05:03:50;;;;;;;5.15;2.40;;;;;;;;;;5019886;28;20022;-78
2023/08/22 05:06:16;;;;;;;6.82;4.47;;;;;;;;;;5025075;28;20121;-78
2023/08/22 05:08:41;;;;;;;7.15;3.97;;;;;;;;;;5012483;28;20051;-78
2023/08/22 05:11:07;;;;;;;6.70;3.22;;;;;;;;;;5021918;28;20048;-78
2023/08/22 05:13:33;;;;;;;7.75;2.92;;;;;;;;;;5014237;28;20030;-78
2023/08/22 05:15:58;;;;;;;8.43;3.25;;;;;;;;;;5024383;28;20036;-78
2023/08/22 05:18:24;;;;;;;4.68;2.40;;;;;;;;;;5022068;28;20037;-78
2023/08/22 05:20:50;;;;;;;7.57;3.10;;;;;;;;;;5021555;28;20022;-78
2023/08/22 05:23:16;;;;;;;5.82;2.50;;;;;;;;;;5025765;28;20025;-78
2023/08/22 05:25:41;;;;;;;6.50;2.80;;;;;;;;;;5024751;28;20025;-78
2023/08/22 05:28:08;;;;;;;5.70;2.85;;;;;;;;;;5029604;28;20024;-78
2023/08/22 05:30:33;;;;;;;5.95;3.28;;;;;;;;;;5026899;28;20033;-78
2023/08/22 05:32:58;;;;;;;8.60;3.45;;;;;;;;;;5026176;28;20033;-78
2023/08/22 05:35:23;;;;;;;6.93;2.85;;;;;;;;;;5024885;28;20033;-78
2023/08/22 05:37:49;;;;;;;4.93;3.05;;;;;;;;;;5022673;28;20025;-78
2023/08/22 05:40:14;;;;;;;9.00;2.83;;;;;;;;;;5019806;28;20113;-78
2023/08/22 05:42:39;;;;;;;5.32;2.50;;;;;;;;;;5021874;28;20092;-78
2023/08/22 05:45:05;;;;;;;6.55;3.17;;;;;;;;;;5014778;28;20049;-78
2023/08/22 05:47:31;;;;;;;6.25;2.92;;;;;;;;;;5022368;28;20061;-78
2023/08/22 05:49:56;;;;;;;8.38;3.20;;;;;;;;;;5025001;28;20502;-78
2023/08/22 05:52:25;;;;;;;6.43;2.60;;;;;;;;;;5020100;28;20045;-78
2023/08/22 05:54:51;;;;;;;9.15;3.05;;;;;;;;;;5007450;28;20072;-78
2023/08/22 05:57:16;;;;;;;8.00;3.67;;;;;;;;;;5025165;28;20033;-78
2023/08/22 05:59:41;;;;;;;7.87;4.00;;;;;;;;;;5025350;28;20057;-78
2023/08/22 06:02:07;;;;;;;8.07;5.10;;;;;;;;;;5022789;28;20351;-78
2023/08/22 06:04:32;;;;;;;8.98;5.50;;;;;;;;;;5025622;28;20045;-78
2023/08/22 06:06:58;;;;;;;6.35;3.70;;;;;;;;;;5025643;28;20032;-78
2023/08/22 06:09:24;;;;;;;7.03;3.25;;;;;;;;;;5019272;28;20034;-77
2023/08/22 06:11:49;;;;;;;8.80;4.57;;;;;;;;;;5022430;28;20025;-78
2023/08/22 06:14:14;;;;;;;9.40;4.43;;;;;;;;;;5026532;28;20029;-78
2023/08/22 06:16:41;;;;;;;7.28;5.38;;;;;;;;;;5024930;28;20034;-78
2023/08/22 06:19:06;;;;;;;8.18;5.65;;;;;;;;;;5020793;28;20025;-78
2023/08/22 06:21:32;;;;;;;7.05;4.57;;;;;;;;;;5021412;28;20041;-78
2023/08/22 06:23:59;;;;;;;9.75;6.95;;;;;;;;;;5021759;28;20484;-78
2023/08/22 06:26:24;;;;;;;7.90;6.00;;;;;;;;;;5012706;28;20026;-78
2023/08/22 06:28:50;;;;;;;10.43;6.90;;;;;;;;;;5022581;28;21375;-78
2023/08/22 06:31:16;;;;;;;11.40;7.65;;;;;;;;;;5007640;28;20036;-78
2023/08/22 06:33:41;;;;;;;9.60;5.80;;;;;;;;;;5021867;28;20041;-78
2023/08/22 06:36:06;;;;;;;9.70;6.55;;;;;;;;;;5022555;28;20109;-78
2023/08/22 06:38:32;;;;;;;9.48;6.80;;;;;;;;;;5023323;28;20037;-78
2023/08/22 06:40:57;;;;;;;9.67;7.43;;;;;;;;;;5021396;28;20069;-78
2023/08/22 06:43:22;;;;;;;10.73;8.43;;;;;;;;;;5026975;28;20310;-78
2023/08/22 06:45:55;;;;;;;9.00;7.35;;;;;;;;;;5022154;28;20280;-78
2023/08/22 06:48:20;;;;;;;13.90;9.02;;;;;;;;;;5024617;28;20446;-78
2023/08/22 06:50:45;;;;;;;8.37;6.43;;;;;;;;;;5021129;28;20113;-78
2023/08/22 06:53:11;;;;;;;8.83;6.47;;;;;;;;;;5018921;28;20422;-78
2023/08/22 06:55:36;;;;;;;11.10;8.47;;;;;;;;;;5013645;28;20284;-78
2023/08/22 06:58:01;;;;;;;10.30;8.70;;;;;;;;;;5019246;28;20315;-78
2023/08/22 07:00:26;;;;;;;9.40;7.30;;;;;;;;;;5025482;28;20273;-78
2023/08/22 07:02:51;;;;;;;9.60;7.22;;;;;;;;;;5022337;28;20279;-78
2023/08/22 07:05:17;;;;;;;8.50;6.80;;;;;;;;;;5023755;28;20038;-78
2023/08/22 07:07:42;;;;;;;7.80;5.68;;;;;;;;;;5027291;28;20280;-78
2023/08/22 07:10:09;;;;;;;9.43;6.75;;;;;;;;;;5026309;28;20466;-78
2023/08/22 07:12:34;;;;;;;9.00;6.65;;;;;;;;;;5021829;28;20048;-78
2023/08/22 07:15:00;;;;;;;7.45;5.25;;;;;;;;;;5027752;28;20100;-78
2023/08/22 07:17:25;;;;;;;10.32;6.85;;;;;;;;;;5023734;28;20103;-78
2023/08/22 07:19:50;;;;;;;10.73;9.18;;;;;;;;;;5032819;28;20435;-78
2023/08/22 07:22:15;;;;;;;14.30;10.32;;;;;;;;;;5029469;28;20041;-78
2023/08/22 07:24:40;;;;;;;10.23;7.23;;;;;;;;;;5029049;28;20114;-78
2023/08/22 07:27:07;;;;;;;8.67;7.23;;;;;;;;;;5029995;28;20284;-78
2023/08/22 07:29:33;;;;;;;6.70;5.65;;;;;;;;;;5026442;28;20280;-78
2023/08/22 07:31:59;;;;;;;6.88;5.72;;;;;;;;;;5026681;28;20099;-78
2023/08/22 07:34:25;;;;;;;7.82;5.68;;;;;;;;;;5024004;28;20045;-78
2023/08/22 07:36:50;;;;;;;8.77;5.82;;;;;;;;;;5049012;23;1227448;-77
2023/08/22 07:39:16;;;;;;;9.15;6.28;;;;;;;;;;5054308;28;20086;-77
2023/08/22 07:41:41;;;;;;;7.55;6.22;;;;;;;;;;5054415;28;20025;-77
2023/08/22 07:44:06;;;;;;;11.23;9.20;;;;;;;;;;5054662;28;20107;-77
2023/08/22 07:46:32;;;;;;;9.97;7.97;;;;;;;;;;5047764;28;20349;-77
2023/08/22 07:48:57;;;;;;;11.73;9.95;;;;;;;;;;5046542;28;20268;-77
2023/08/22 07:51:22;;;;;;;10.43;8.80;;;;;;;;;;5044347;28;20472;-77
2023/08/22 07:53:47;;;;;;;8.93;7.07;;;;;;;;;;5044439;28;20021;-78
2023/08/22 07:56:13;;;;;;;10.00;8.00;;;;;;;;;;5040470;28;20326;-77
2023/08/22 07:58:38;;;;;;;14.07;10.70;;;;;;;;;;5031380;28;20817;-77
2023/08/22 08:01:04;;;;;;;9.80;6.97;;;;;;;;;;5043429;28;20326;-77
2023/08/22 08:03:29;;;;;;;9.90;7.00;;;;;;;;;;5045635;28;20287;-77
2023/08/22 08:05:55;;;;;;;10.70;8.53;;;;;;;;;;5041472;28;20097;-77
2023/08/22 08:08:20;;;;;;;11.17;8.80;;;;;;;;;;5042481;28;20288;-78
2023/08/22 08:10:45;;;;;;;10.50;9.50;;;;;;;;;;5043337;28;20341;-78
2023/08/22 08:13:10;;;;;;;10.10;7.90;;;;;;;;;;5039267;28;20372;-78
2023/08/22 08:15:35;;;;;;;9.00;7.30;;;;;;;;;;5034600;28;20090;-78
2023/08/22 08:18:01;;;;;;;11.88;7.57;;;;;;;;;;5043740;28;20448;-78
2023/08/22 08:20:26;;;;;;;12.77;11.50;;;;;;;;;;5042586;28;20029;-78
2023/08/22 08:22:52;;;;;;;10.82;9.73;;;;;;;;;;5035598;28;20025;-77
2023/08/22 08:25:17;;;;;;;7.70;6.90;;;;;;;;;;5016302;28;20048;-78
2023/08/22 08:27:43;;;;;;;7.90;7.07;;;;;;;;;;5042147;28;20038;-78
2023/08/22 08:30:10;;;;;;;10.45;8.07;;;;;;;;;;5042904;28;20119;-78
2023/08/22 08:32:35;;;;;;;8.60;6.65;;;;;;;;;;5041007;28;20065;-78
2023/08/22 08:35:00;;;;;;;7.10;5.72;;;;;;;;;;5042172;28;20049;-78
2023/08/22 08:37:26;;;;;;;9.43;6.82;;;;;;;;;;5037015;28;20037;-78
2023/08/22 08:39:51;;;;;;;10.30;7.07;;;;;;;;;;5021983;28;20033;-78
2023/08/22 08:42:17;;;;;;;12.00;6.70;;;;;;;;;;5033366;28;20419;-78
2023/08/22 08:44:42;;;;;;;9.85;8.05;;;;;;;;;;5038259;28;20794;-78
2023/08/22 08:47:08;;;;;;;12.40;9.55;;;;;;;;;;5043659;28;20059;-78
2023/08/22 08:49:34;;;;;;;8.32;6.28;;;;;;;;;;5037068;28;20401;-78
2023/08/22 08:52:02;;;;;;;7.13;6.25;;;;;;;;;;5045064;28;20496;-78
2023/08/22 08:54:28;;;;;;;9.38;6.32;;;;;;;;;;5041734;28;20037;-78
2023/08/22 08:56:54;;;;;;;9.38;8.18;;;;;;;;;;5042139;28;20048;-78
2023/08/22 08:59:19;;;;;;;7.68;6.32;;;;;;;;;;5040427;28;20026;-78
2023/08/22 09:01:45;;;;;;;10.13;6.80;;;;;;;;;;5045084;28;20476;-78
2023/08/22 09:04:10;;;;;;;7.82;5.70;;;;;;;;;;5039804;28;20034;-78
2023/08/22 09:06:37;;;;;;;6.67;5.97;;;;;;;;;;5040829;28;20397;-78
2023/08/22 09:09:08;;;;;;;9.63;6.93;;;;;;;;;;5043028;28;20275;-78
2023/08/22 09:11:34;;;;;;;8.02;6.30;;;;;;;;;;5040584;28;20645;-78
2023/08/22 09:13:59;;;;;;;9.43;6.68;;;;;;;;;;5031604;28;20035;-77
2023/08/22 09:16:25;;;;;;;7.75;6.40;;;;;;;;;;5040009;28;20037;-78
2023/08/22 09:18:50;;;;;;;7.75;5.78;;;;;;;;;;5041246;28;20029;-78
2023/08/22 09:21:16;;;;;;;8.88;6.30;;;;;;;;;;5030519;28;20053;-78
2023/08/22 09:23:42;;;;;;;8.25;6.40;;;;;;;;;;5043755;28;20064;-78
2023/08/22 09:26:07;;;;;;;7.93;6.80;;;;;;;;;;5041603;28;20072;-78
2023/08/22 09:28:38;;;;;;;10.23;7.53;;;;;;;;;;5043423;28;20037;-78
2023/08/22 09:31:03;;;;;;;8.60;6.70;;;;;;;;;;5044326;28;20457;-78
2023/08/22 09:33:28;;;;;;;8.50;6.68;;;;;;;;;;5040694;28;20112;-78
2023/08/22 09:35:57;;;;;;;9.70;6.78;;;;;;;;;;5043776;28;20040;-77
2023/08/22 09:38:22;;;;;;;7.00;6.13;;;;;;;;;;5029473;28;20040;-78
2023/08/22 09:40:51;;;;;;;11.63;6.78;;;;;;;;;;5040527;28;20029;-78
2023/08/22 09:43:18;;;;;;;7.50;6.28;;;;;;;;;;5042837;28;20036;-78
2023/08/22 09:45:43;;;;;;;8.85;6.70;;;;;;;;;;5041764;28;20026;-77
2023/08/22 09:48:13;;;;;;;9.90;7.03;;;;;;;;;;5042858;28;20021;-78
2023/08/22 09:50:40;;;;;;;9.98;8.70;;;;;;;;;;5041655;28;20497;-78
2023/08/22 09:53:06;;;;;;;22.75;7.05;;;;;;;;;;5041736;28;20116;-78
2023/08/22 09:55:32;;;;;;;10.15;8.27;;;;;;;;;;5039689;28;20113;-78
2023/08/22 09:57:57;;;;;;;8.52;7.63;;;;;;;;;;5039337;28;20036;-78
2023/08/22 10:00:26;;;;;;;9.20;5.63;;;;;;;;;;5043279;28;20026;-77
2023/08/22 10:02:52;;;;;;;9.02;6.18;;;;;;;;;;5043282;28;20029;-79
2023/08/22 10:05:17;;;;;;;7.85;6.10;;;;;;;;;;5041385;28;20439;-79
2023/08/22 10:07:43;;;;;;;8.20;6.25;;;;;;;;;;5037768;28;20033;-78
2023/08/22 10:10:09;;;;;;;9.77;7.50;;;;;;;;;;5040128;28;20037;-78
2023/08/22 10:12:34;;;;;;;9.63;6.70;;;;;;;;;;5041261;28;20044;-78
2023/08/22 10:15:03;;;;;;;10.07;5.50;;;;;;;;;;5037816;28;20013;-79
2023/08/22 10:17:29;;;;;;;8.73;6.10;;;;;;;;;;5038443;28;20034;-78
2023/08/22 10:20:20;;;;;;;9.30;6.13;;;;;;;;;;5039593;28;20127;-79
2023/08/22 10:22:45;;;;;;;9.07;5.85;;;;;;;;;;5035436;28;20073;-79
2023/08/22 10:25:11;;;;;;;7.22;6.25;;;;;;;;;;5040716;28;20055;-78
2023/08/22 10:27:45;;;;;;;6.87;5.87;;;;;;;;;;5039169;28;20479;-78
2023/08/22 10:30:14;;;;;;;8.95;5.78;;;;;;;;;;5040039;28;20033;-78
2023/08/22 10:32:40;;;;;;;8.63;5.82;;;;;;;;;;5039672;28;20507;-78
2023/08/22 10:35:14;;;;;;;8.80;5.05;;;;;;;;;;5039558;28;20025;-78
2023/08/22 10:37:45;;;;;;;7.25;5.20;;;;;;;;;;5005752;28;20034;-78
2023/08/22 10:40:18;;;;;;;9.10;5.60;;;;;;;;;;5037008;28;20060;-78
2023/08/22 10:42:49;;;;;;;7.20;5.95;;;;;;;;;;5031527;28;20404;-78
2023/08/22 10:45:18;;;;;;;9.80;5.63;;;;;;;;;;5038094;28;20243;-78
2023/08/22 10:47:47;;;;;;;7.22;5.32;;;;;;;;;;5035806;28;20087;-79
2023/08/22 10:50:12;;;;;;;7.38;5.47;;;;;;;;;;5039053;28;20021;-79
2023/08/22 10:52:38;;;;;;;7.38;5.63;;;;;;;;;;5022255;28;20492;-79
2023/08/22 10:55:11;;;;;;;8.02;5.50;;;;;;;;;;5041830;28;20034;-79
2023/08/22 10:57:44;;;;;;;7.63;5.50;;;;;;;;;;5035563;28;20111;-79
2023/08/22 11:00:19;;;;;;;7.68;5.55;;;;;;;;;;5030935;28;20026;-73
2023/08/22 11:02:44;;;;;;;7.65;5.35;;;;;;;;;;5039370;28;20029;-74
2023/08/22 11:05:11;;;;;;;7.38;5.40;;;;;;;;;;5039274;28;20458;-75
2023/08/22 11:07:39;;;;;;;12.60;6.20;;;;;;;;;;5038860;28;20056;-75
2023/08/22 11:10:05;;;;;;;8.77;5.00;;;;;;;;;;5035176;28;20025;-74
2023/08/22 11:12:30;;;;;;;8.55;5.47;;;;;;;;;;5039194;28;20029;-74
2023/08/22 11:14:57;;;;;;;6.50;5.40;;;;;;;;;;5042483;28;20462;-74
2023/08/22 11:17:23;;;;;;;8.65;5.45;;;;;;;;;;5039823;28;20785;-74
2023/08/22 11:19:49;;;;;;;10.30;5.80;;;;;;;;;;5039072;28;20040;-75
2023/08/22 11:22:14;;;;;;;9.52;5.20;;;;;;;;;;5041777;28;20056;-75
2023/08/22 11:24:43;;;;;;;7.55;4.95;;;;;;;;;;5040017;28;20029;-74
2023/08/22 11:27:09;;;;;;;7.72;5.45;;;;;;;;;;5031087;28;20037;-74
2023/08/22 11:29:43;;;;;;;8.38;5.15;;;;;;;;;;5033569;28;20029;-74
2023/08/22 11:32:21;;;;;;;6.40;4.97;;;;;;;;;;5040796;28;20120;-74
2023/08/22 11:34:48;;;;;;;5.93;5.22;;;;;;;;;;5037983;28;20484;-74
2023/08/22 11:37:14;;;;;;;7.40;4.80;;;;;;;;;;5040675;28;20029;-74
2023/08/22 11:39:39;;;;;;;9.77;6.13;;;;;;;;;;5040550;28;20488;-74
2023/08/22 11:42:14;;;;;;;13.43;5.90;;;;;;;;;;5040970;28;20098;-75
2023/08/22 11:45:09;;;;;;;7.53;5.63;;;;;;;;;;5039688;28;20287;-74
2023/08/22 11:47:39;;;;;;;6.82;5.43;;;;;;;;;;5006230;28;20041;-74
2023/08/22 11:50:05;;;;;;;8.00;5.03;;;;;;;;;;5037952;28;20044;-74
2023/08/22 11:52:30;;;;;;;8.20;4.90;;;;;;;;;;5041729;28;20029;-74
2023/08/22 11:55:05;;;;;;;8.43;4.30;;;;;;;;;;5035364;28;20472;-74
2023/08/22 11:57:31;;;;;;;8.15;4.85;;;;;;;;;;5032649;28;20045;-74
2023/08/22 11:59:58;;;;;;;6.53;5.10;;;;;;;;;;5034275;28;20083;-76
2023/08/22 12:02:23;;;;;;;6.80;4.78;;;;;;;;;;5038479;28;20034;-75
2023/08/22 12:04:49;;;;;;;8.27;5.10;;;;;;;;;;5043782;28;20040;-74
2023/08/22 12:07:14;;;;;;;8.03;4.90;;;;;;;;;;5027038;28;20044;-75
2023/08/22 12:09:39;;;;;;;6.68;5.05;;;;;;;;;;5039135;28;20030;-75
2023/08/22 12:12:08;;;;;;;17.03;4.77;;;;;;;;;;5039586;28;20034;-74
2023/08/22 12:14:34;;;;;;;7.32;4.80;;;;;;;;;;5039591;28;20341;-75
2023/08/22 12:16:59;;;;;;;7.27;4.50;;;;;;;;;;5033447;28;20060;-75
2023/08/22 12:19:24;;;;;;;9.40;4.47;;;;;;;;;;5026453;28;20048;-74
2023/08/22 12:21:49;;;;;;;6.03;4.70;;;;;;;;;;5027192;28;20051;-75
2023/08/22 12:24:14;;;;;;;8.83;4.50;;;;;;;;;;5042794;28;20492;-74
2023/08/22 12:26:40;;;;;;;5.57;4.20;;;;;;;;;;5044415;28;20025;-75
2023/08/22 12:29:05;;;;;;;7.07;4.30;;;;;;;;;;5042383;28;20785;-74
2023/08/22 12:31:32;;;;;;;12.80;5.00;;;;;;;;;;5043563;28;20271;-75
2023/08/22 12:33:57;;;;;;;5.65;4.40;;;;;;;;;;5042597;28;20581;-74
2023/08/22 12:36:22;;;;;;;8.00;4.63;;;;;;;;;;5041838;28;20086;-75
2023/08/22 12:38:47;;;;;;;10.40;4.63;;;;;;;;;;5043993;28;20029;-77
2023/08/22 12:41:13;;;;;;;7.40;4.70;;;;;;;;;;5041974;28;20037;-74
2023/08/22 12:43:38;;;;;;;8.33;4.90;;;;;;;;;;5044732;28;20267;-74
2023/08/22 12:46:03;;;;;;;7.72;4.40;;;;;;;;;;5041667;28;20315;-75
2023/08/22 12:48:29;;;;;;;8.70;4.67;;;;;;;;;;5041518;28;20037;-74
2023/08/22 12:50:55;;;;;;;6.45;4.60;;;;;;;;;;5044145;28;20340;-74
2023/08/22 12:53:20;;;;;;;8.02;4.97;;;;;;;;;;5041105;28;20120;-75
2023/08/22 12:55:45;;;;;;;8.40;4.77;;;;;;;;;;5044908;28;20032;-74
2023/08/22 12:58:10;;;;;;;7.80;4.67;;;;;;;;;;5023344;28;20300;-74
2023/08/22 13:00:36;;;;;;;6.67;4.87;;;;;;;;;;5044974;28;20281;-74
2023/08/22 13:03:02;;;;;;;7.90;4.50;;;;;;;;;;5039855;28;20948;-75
2023/08/22 13:05:27;;;;;;;7.93;4.95;;;;;;;;;;5040965;28;20030;-74
2023/08/22 13:07:52;;;;;;;8.45;4.63;;;;;;;;;;5040017;28;20025;-75
2023/08/22 13:10:18;;;;;;;13.23;5.67;;;;;;;;;;5038918;28;20067;-74
2023/08/22 13:12:43;;;;;;;8.70;4.87;;;;;;;;;;5040978;28;20037;-75
2023/08/22 13:15:08;;;;;;;7.10;4.60;;;;;;;;;;5044553;28;20275;-75
2023/08/22 13:17:33;;;;;;;7.65;5.05;;;;;;;;;;5041406;28;20299;-74
2023/08/22 13:19:59;;;;;;;7.53;4.00;;;;;;;;;;5040651;28;20377;-74
2023/08/22 13:22:24;;;;;;;7.43;4.72;;;;;;;;;;5043903;28;20041;-74
2023/08/22 13:24:49;;;;;;;10.63;4.30;;;;;;;;;;5041286;28;20061;-74
2023/08/22 13:27:14;;;;;;;5.63;4.23;;;;;;;;;;5043742;28;20286;-74
2023/08/22 13:29:39;;;;;;;10.20;5.00;;;;;;;;;;5043056;28;20040;-74
2023/08/22 13:32:05;;;;;;;8.83;5.13;;;;;;;;;;5040592;28;20279;-74
2023/08/22 13:34:30;;;;;;;7.53;4.97;;;;;;;;;;5043613;28;20040;-74
2023/08/22 13:36:55;;;;;;;7.43;4.65;;;;;;;;;;5023185;28;20041;-74
2023/08/22 13:39:21;;;;;;;8.43;4.85;;;;;;;;;;5042782;28;20448;-75
2023/08/22 13:41:46;;;;;;;7.97;4.93;;;;;;;;;;5041360;28;20028;-74
2023/08/22 13:44:11;;;;;;;8.27;4.30;;;;;;;;;;5043341;28;20035;-74
2023/08/22 13:46:37;;;;;;;6.30;4.57;;;;;;;;;;5040118;28;20064;-75
2023/08/22 13:49:02;;;;;;;7.10;5.20;;;;;;;;;;5024624;28;20025;-74
2023/08/22 13:51:27;;;;;;;7.83;4.70;;;;;;;;;;5041253;28;20479;-74
2023/08/22 13:53:52;;;;;;;7.90;4.85;;;;;;;;;;5042738;28;20078;-74
2023/08/22 13:56:19;;;;;;;8.77;4.80;;;;;;;;;;5041503;28;20041;-74
2023/08/22 13:58:44;;;;;;;7.90;5.65;;;;;;;;;;5042001;28;20650;-74
2023/08/22 14:01:09;;;;;;;7.63;5.30;;;;;;;;;;5037851;28;20025;-74
2023/08/22 14:03:35;;;;;;;10.30;5.40;;;;;;;;;;5039448;28;20709;-74
2023/08/22 14:06:03;;;;;;;8.25;5.60;;;;;;;;;;5041279;28;20381;-74
2023/08/22 14:08:28;;;;;;;6.20;4.95;;;;;;;;;;5040099;28;20025;-73
2023/08/22 14:10:56;;;;;;;9.73;5.63;;;;;;;;;;5036179;28;20502;-75
2023/08/22 14:13:21;;;;;;;7.68;5.40;;;;;;;;;;5042369;28;20788;-75
2023/08/22 14:15:50;;;;;;;7.57;4.53;;;;;;;;;;5040830;28;20097;-75
2023/08/22 14:18:15;;;;;;;6.57;4.32;;;;;;;;;;5042981;28;20295;-74
2023/08/22 14:20:43;;;;;;;8.17;4.50;;;;;;;;;;5039788;28;20395;-75
2023/08/22 14:23:08;;;;;;;8.95;5.40;;;;;;;;;;5039363;28;20280;-74
2023/08/22 14:25:34;;;;;;;7.53;5.32;;;;;;;;;;5040203;28;20115;-74
2023/08/22 14:27:59;;;;;;;7.37;5.20;;;;;;;;;;5043461;28;20121;-74
2023/08/22 14:30:24;;;;;;;9.85;5.53;;;;;;;;;;5036950;28;20280;-74
2023/08/22 14:32:49;;;;;;;9.87;5.10;;;;;;;;;;5043453;28;20032;-74
2023/08/22 14:35:15;;;;;;;8.90;5.33;;;;;;;;;;5042206;28;20064;-75